Time;durP1;ratioP1;P1;durP2;ratioP2;P2;SDS_P1;SDS_P2;PMS_P1;PMS_P2;Temp;Humidity;BMP_temperature;BMP_pressure;BME280_temperature;BME280_humidity;BME280_pressure;Samples;Min_cycle;Max_cycle;Signal;HPM_P1;HPM_P2
2022/06/02 00:01:18;;;;;;;9.13;8.33;;;;;;;12.71;71.03;101310.25;5039531;28;20403;-64
2022/06/02 00:03:55;;;;;;;7.80;7.20;;;;;;;12.75;71.00;101309.41;5039392;28;20424;-64
2022/06/02 00:06:33;;;;;;;9.10;8.30;;;;;;;12.88;70.42;101312.13;5038710;28;20420;-64
2022/06/02 00:09:10;;;;;;;9.00;8.10;;;;;;;12.72;70.99;101321.56;5039412;28;20678;-64
2022/06/02 00:11:38;;;;;;;9.10;8.20;;;;;;;12.77;70.70;101320.78;5039219;28;20494;-64
2022/06/02 00:14:10;;;;;;;8.40;7.70;;;;;;;12.69;71.05;101316.31;5039121;28;20413;-64
2022/06/02 00:16:50;;;;;;;10.40;8.90;;;;;;;12.93;70.46;101303.47;5038257;28;20488;-64
2022/06/02 00:19:32;;;;;;;9.87;8.97;;;;;;;12.59;71.59;101315.34;5039015;28;20526;-64
2022/06/02 00:22:04;;;;;;;10.40;8.63;;;;;;;12.68;71.46;101314.56;5038422;28;20527;-64
2022/06/02 00:24:40;;;;;;;11.87;9.73;;;;;;;12.70;71.55;101324.19;5038081;28;20416;-64
2022/06/02 00:27:15;;;;;;;10.47;9.50;;;;;;;12.57;71.88;101315.34;5038264;28;20718;-63
2022/06/02 00:30:14;;;;;;;12.30;11.10;;;;;;;12.85;70.94;101313.00;5039042;28;20647;-63
2022/06/02 00:32:47;;;;;;;11.47;10.40;;;;;;;12.72;71.68;101319.84;5050610;28;20682;-64
2022/06/02 00:35:22;;;;;;;11.13;10.03;;;;;;;12.60;71.66;101317.97;5054706;28;20436;-64
2022/06/02 00:38:18;;;;;;;12.53;11.33;;;;;;;12.34;72.69;101319.44;5054572;28;20448;-64
2022/06/02 00:40:43;;;;;;;11.00;9.90;;;;;;;12.62;72.34;101323.22;5038611;28;20390;-65
2022/06/02 00:43:30;;;;;;;12.67;10.97;;;;;;;12.44;72.70;101326.53;5038581;28;20662;-64
2022/06/02 00:46:14;;;;;;;12.50;11.40;;;;;;;12.39;72.35;101334.31;5038652;28;20261;-64
2022/06/02 00:48:55;;;;;;;11.90;10.80;;;;;;;12.23;73.34;101337.59;5038634;28;20504;-63
2022/06/02 00:51:41;;;;;;;12.10;11.00;;;;;;;12.36;73.29;101336.03;5037873;28;20420;-64
2022/06/02 00:57:32;;;;;;;13.20;11.93;;;;;;;12.41;72.69;101340.44;5038441;28;20432;-64
2022/06/02 01:00:11;;;;;;;13.03;11.83;;;;;;;12.20;73.47;101348.03;5038206;28;20521;-64
2022/06/02 01:02:53;;;;;;;12.83;11.63;;;;;;;12.01;74.05;101342.53;5038392;28;20464;-64
2022/06/02 01:05:35;;;;;;;12.00;10.87;;;;;;;11.99;74.48;101349.50;5038353;28;20844;-63
2022/06/02 01:08:28;;;;;;;12.80;11.60;;;;;;;12.04;74.49;101350.44;5053705;28;20427;-64
2022/06/02 01:11:25;;;;;;;13.37;12.17;;;;;;;11.98;74.82;101354.72;5037654;28;20416;-64
2022/06/02 01:14:25;;;;;;;13.73;12.40;;;;;;;12.04;74.70;101350.44;5037325;28;20436;-64
2022/06/02 01:17:29;;;;;;;13.33;11.80;;;;;;;12.16;74.38;101364.53;5038115;28;20472;-65
2022/06/02 01:20:16;;;;;;;13.40;12.00;;;;;;;12.15;74.52;101360.16;5037498;28;20471;-64
2022/06/02 01:23:05;;;;;;;13.73;12.27;;;;;;;11.86;75.24;101356.25;5038090;28;20457;-64
2022/06/02 01:25:41;;;;;;;13.40;12.10;;;;;;;11.79;75.24;101365.72;5037363;28;20812;-64
2022/06/02 01:28:30;;;;;;;13.43;12.23;;;;;;;11.53;75.72;101360.13;5038014;28;20410;-65
2022/06/02 01:31:36;;;;;;;13.00;11.80;;;;;;;11.80;75.14;101356.19;5037164;28;20655;-64
2022/06/02 01:34:14;;;;;;;12.53;11.23;;;;;;;11.77;74.52;101361.34;5036584;28;20396;-64
2022/06/02 01:37:12;;;;;;;13.80;12.50;;;;;;;11.57;75.41;101376.72;5037971;28;20387;-63
2022/06/02 01:39:44;;;;;;;13.50;12.10;;;;;;;11.55;75.62;101358.41;5038100;28;20460;-64
2022/06/02 01:42:27;;;;;;;13.27;12.03;;;;;;;11.54;75.41;101367.13;5037993;28;20480;-64
2022/06/02 01:45:00;;;;;;;13.77;12.43;;;;;;;11.65;75.05;101367.28;5037218;28;20395;-64
2022/06/02 01:47:34;;;;;;;13.90;12.50;;;;;;;11.66;74.44;101366.41;5037260;28;20424;-64
2022/06/02 01:50:05;;;;;;;11.57;10.50;;;;;;;11.61;74.56;101368.09;5038063;28;20412;-65
2022/06/02 01:53:06;;;;;;;15.03;11.73;;;;;;;11.34;75.12;101374.63;5037830;28;20409;-64
2022/06/02 01:55:37;;;;;;;12.90;11.63;;;;;;;11.48;75.23;101366.13;5038174;28;20777;-64
2022/06/02 01:58:25;;;;;;;12.93;11.70;;;;;;;11.42;75.11;101373.00;5037714;28;20437;-63
2022/06/02 02:01:12;;;;;;;14.57;13.17;;;;;;;11.71;74.81;101363.88;5037767;28;20391;-64
2022/06/02 02:03:52;;;;;;;13.40;12.03;;;;;;;11.50;74.63;101373.13;5036911;28;20790;-64
2022/06/02 02:06:27;;;;;;;14.27;12.77;;;;;;;11.56;74.68;101370.59;5037852;28;20425;-64
2022/06/02 02:09:13;;;;;;;13.70;12.40;;;;;;;11.36;75.61;101377.25;5037671;28;20408;-64
2022/06/02 02:11:47;;;;;;;14.27;12.87;;;;;;;11.48;75.44;101373.97;5037566;28;20387;-64
2022/06/02 02:14:25;;;;;;;14.70;13.20;;;;;;;11.45;74.94;101386.09;5037569;28;20391;-64
2022/06/02 02:17:00;;;;;;;13.87;12.50;;;;;;;11.25;75.54;101390.13;5037441;28;20543;-63
2022/06/02 02:19:39;;;;;;;13.77;12.37;;;;;;;11.34;75.76;101385.06;5038210;28;20779;-63
2022/06/02 02:22:30;;;;;;;14.50;13.10;;;;;;;11.37;76.04;101389.44;5040513;28;20714;-63
2022/06/02 02:25:01;;;;;;;15.27;13.67;;;;;;;11.39;75.46;101386.03;5041223;28;20383;-64
2022/06/02 02:28:02;;;;;;;14.80;13.40;;;;;;;11.53;75.47;101391.47;5041210;28;20463;-64
2022/06/02 02:30:23;;;;;;;14.60;13.20;;;;;;;11.28;76.09;101385.84;5040946;28;20399;-64
2022/06/02 02:33:19;;;;;;;15.47;13.97;;;;;;;11.37;75.87;101389.44;5056815;28;20412;-64
2022/06/02 02:36:02;;;;;;;14.73;13.33;;;;;;;11.15;75.89;101393.41;5041080;28;20387;-65
2022/06/02 02:38:51;;;;;;;14.17;12.77;;;;;;;11.48;75.80;101394.84;5040466;28;20893;-65
2022/06/02 02:41:26;;;;;;;13.70;12.40;;;;;;;11.28;76.11;101388.44;5040275;28;20391;-64
2022/06/02 02:44:03;;;;;;;15.10;13.57;;;;;;;11.40;75.74;101400.81;5040145;28;20424;-64
2022/06/02 02:46:49;;;;;;;14.47;13.10;;;;;;;11.28;75.81;101385.84;5040289;28;20393;-64
2022/06/02 02:49:36;;;;;;;14.17;12.77;;;;;;;11.36;75.84;101392.91;5040161;28;20567;-64
2022/06/02 02:52:12;;;;;;;14.63;13.10;;;;;;;11.45;75.04;101391.31;5040719;28;20422;-65
2022/06/02 02:54:45;;;;;;;15.40;13.60;;;;;;;11.36;75.43;101387.69;5040767;28;20409;-64
2022/06/02 02:57:33;;;;;;;15.57;14.03;;;;;;;11.25;75.76;101387.50;5040031;28;20395;-64
2022/06/02 03:00:27;;;;;;;16.17;14.47;;;;;;;11.31;76.43;101389.34;5040538;28;20465;-64
2022/06/02 03:03:11;;;;;;;16.60;14.90;;;;;;;11.25;75.90;101388.38;5040057;28;20425;-64
2022/06/02 03:06:13;;;;;;;17.13;14.90;;;;;;;11.17;76.35;101395.19;5056655;28;20516;-64
2022/06/02 03:08:38;;;;;;;18.43;16.47;;;;;;;11.21;76.76;101398.75;5039756;28;20383;-64
2022/06/02 03:11:24;;;;;;;18.10;16.20;;;;;;;11.31;76.34;101397.16;5040581;28;20427;-63
2022/06/02 03:14:02;;;;;;;18.27;16.37;;;;;;;11.23;75.99;101400.53;5039642;28;20249;-62
2022/06/02 03:16:28;;;;;;;16.70;15.03;;;;;;;11.25;75.98;101401.41;5039555;28;20481;-64
2022/06/02 03:19:20;;;;;;;18.23;16.50;;;;;;;11.32;75.88;101393.72;5039402;28;20464;-63
2022/06/02 03:21:54;;;;;;;16.77;15.07;;;;;;;11.28;75.87;101405.81;5040217;28;20651;-64
2022/06/02 03:25:08;;;;;;;20.27;17.47;;;;;;;11.10;76.11;101404.63;5039407;28;20718;-64
2022/06/02 03:27:50;;;;;;;19.63;17.33;;;;;;;11.09;76.58;101415.91;5034738;28;20857;-65
2022/06/02 03:30:22;;;;;;;18.37;16.47;;;;;;;11.26;75.85;101410.16;5039044;28;20428;-64
2022/06/02 03:33:02;;;;;;;19.90;17.20;;;;;;;11.20;75.64;101418.72;5039923;28;20811;-64
2022/06/02 03:35:29;;;;;;;19.60;17.50;;;;;;;11.28;75.32;101421.47;5040005;28;20500;-64
2022/06/02 03:38:16;;;;;;;23.80;18.43;;;;;;;11.26;75.58;101423.19;5039170;28;20399;-63
2022/06/02 03:41:04;;;;;;;19.97;17.47;;;;;;;11.48;75.29;101418.34;5039912;28;20402;-64
2022/06/02 03:43:56;;;;;;;18.43;16.17;;;;;;;12.53;71.51;101406.81;5039712;28;20523;-64
2022/06/02 03:46:43;;;;;;;15.30;13.70;;;;;;;13.48;67.95;101405.22;5039103;28;20437;-65
2022/06/02 03:49:32;;;;;;;16.10;14.50;;;;;;;12.91;67.85;101409.03;5039176;28;20483;-65
2022/06/02 03:52:26;;;;;;;14.53;13.07;;;;;;;12.92;69.74;101409.03;5039647;28;20380;-64
2022/06/02 03:55:08;;;;;;;15.77;14.27;;;;;;;13.62;66.14;101400.06;5039051;28;20436;-64
2022/06/02 03:57:58;;;;;;;15.77;14.17;;;;;;;13.56;66.21;101407.03;5055566;28;20551;-64
2022/06/02 04:00:30;;;;;;;14.47;13.17;;;;;;;14.35;63.58;101408.41;5038896;28;20401;-64
2022/06/02 04:03:01;;;;;;;13.43;12.13;;;;;;;14.98;61.97;101407.78;5055252;28;20487;-63
2022/06/02 04:05:49;;;;;;;14.40;11.67;;;;;;;15.43;60.45;101416.59;5039577;28;20407;-64
2022/06/02 04:08:43;;;;;;;13.03;11.83;;;;;;;14.62;61.53;101414.63;5038696;28;20445;-64
2022/06/02 04:11:18;;;;;;;13.73;12.53;;;;;;;15.04;61.54;101413.03;5022254;28;20449;-64
2022/06/02 04:13:53;;;;;;;12.93;11.83;;;;;;;16.26;57.05;101410.34;5039166;28;20375;-64
2022/06/02 04:16:39;;;;;;;12.87;11.77;;;;;;;16.50;55.91;101414.66;5038376;28;20487;-64
2022/06/02 04:22:27;;;;;;;12.47;11.33;;;;;;;15.08;59.37;101425.28;5052535;28;20440;-64
2022/06/02 04:25:07;;;;;;;13.73;12.50;;;;;;;13.93;62.43;101439.63;5039081;28;20405;-64
2022/06/02 04:27:41;;;;;;;14.20;12.87;;;;;;;13.54;64.10;101441.06;5055021;28;20708;-64
2022/06/02 04:30:23;;;;;;;15.47;13.90;;;;;;;12.94;67.14;101438.69;5038321;28;20412;-63
2022/06/02 04:33:29;;;;;;;15.27;13.87;;;;;;;12.71;67.72;101450.66;5038115;28;20395;-64
2022/06/02 04:36:21;;;;;;;14.63;13.23;;;;;;;12.89;67.97;101460.44;5037945;28;20473;-64
2022/06/02 04:39:08;;;;;;;16.37;14.80;;;;;;;12.71;68.31;101459.38;5038033;28;20431;-64
2022/06/02 04:41:46;;;;;;;17.30;15.40;;;;;;;12.93;67.72;101462.25;5036854;28;20669;-64
2022/06/02 04:44:21;;;;;;;15.90;14.40;;;;;;;12.79;68.08;101462.09;5037472;28;20394;-64
2022/06/02 04:47:05;;;;;;;16.97;15.20;;;;;;;12.59;68.58;101464.44;5038337;28;20657;-64
2022/06/02 04:50:02;;;;;;;15.33;13.90;;;;;;;12.71;69.04;101467.22;5037137;28;20453;-64
2022/06/02 04:52:48;;;;;;;16.03;14.20;;;;;;;12.49;69.31;101473.03;5038202;28;20423;-64
2022/06/02 04:55:20;;;;;;;17.40;14.43;;;;;;;12.56;69.60;101474.88;5037915;28;20795;-64
2022/06/02 04:58:16;;;;;;;13.83;12.53;;;;;;;12.49;69.33;101486.09;5054503;28;21689;-64
2022/06/02 05:01:03;;;;;;;15.20;13.73;;;;;;;12.72;68.70;101473.31;5047860;28;20424;-64
2022/06/02 05:03:55;;;;;;;16.43;14.70;;;;;;;12.71;69.40;101484.66;5031695;28;20487;-63
2022/06/02 05:06:40;;;;;;;15.00;13.40;;;;;;;12.69;69.85;101483.75;5053944;28;20414;-64
2022/06/02 05:09:26;;;;;;;16.97;14.10;;;;;;;12.55;69.36;101491.41;5038353;28;20441;-64
2022/06/02 05:12:18;;;;;;;14.67;13.27;;;;;;;12.72;69.23;101486.41;5037545;28;20677;-64
2022/06/02 05:14:50;;;;;;;14.80;13.30;;;;;;;13.25;68.33;101480.06;5020939;28;20678;-64
2022/06/02 05:17:51;;;;;;;15.57;14.07;;;;;;;13.35;67.74;101483.63;5019377;28;20469;-64
2022/06/02 05:20:26;;;;;;;14.20;12.80;;;;;;;13.29;67.72;101484.47;5048435;28;20462;-64
2022/06/02 05:23:03;;;;;;;14.90;13.40;;;;;;;12.92;68.26;101495.41;5037789;28;20827;-65
2022/06/02 05:25:40;;;;;;;15.07;13.63;;;;;;;13.13;68.22;101501.72;5033580;28;20688;-64
2022/06/02 05:28:16;;;;;;;14.47;13.07;;;;;;;13.00;68.77;101502.44;5017538;28;20491;-64
2022/06/02 05:31:00;;;;;;;27.40;23.33;;;;;;;13.14;67.82;101501.75;5028455;28;20403;-64
2022/06/02 05:33:44;;;;;;;13.13;11.73;;;;;;;12.94;68.14;101501.50;5033524;28;20440;-63
2022/06/02 05:36:34;;;;;;;14.23;12.50;;;;;;;13.38;67.37;101496.78;5025092;28;20416;-63
2022/06/02 05:39:20;;;;;;;12.90;11.60;;;;;;;13.30;67.87;101504.53;5037725;28;20522;-63
2022/06/02 05:41:55;;;;;;;13.90;11.40;;;;;;;13.90;66.73;101509.50;5036670;28;20520;-64
2022/06/02 05:44:39;;;;;;;13.00;11.70;;;;;;;14.86;63.38;101508.38;5037670;28;20391;-63
2022/06/02 05:47:21;;;;;;;12.07;10.40;;;;;;;13.93;64.27;101510.38;5037615;28;20392;-65
2022/06/02 05:50:08;;;;;;;11.37;10.23;;;;;;;13.66;65.96;101515.41;5036906;28;20406;-63
2022/06/02 05:52:44;;;;;;;11.40;10.40;;;;;;;14.18;64.99;101520.19;5036088;28;20407;-64
2022/06/02 05:55:13;;;;;;;11.47;10.43;;;;;;;13.88;65.50;101521.72;5040780;28;20781;-65
2022/06/02 05:57:44;;;;;;;11.40;9.70;;;;;;;13.93;65.46;101522.63;5041170;28;20848;-64
2022/06/02 06:00:31;;;;;;;10.53;9.63;;;;;;;13.60;66.98;101521.47;5057286;28;20533;-63
2022/06/02 06:03:13;;;;;;;10.73;9.63;;;;;;;13.37;67.41;101529.97;5057086;28;20818;-63
2022/06/02 06:05:42;;;;;;;10.83;9.83;;;;;;;13.66;67.10;101523.28;5040245;28;20444;-63
2022/06/02 06:08:43;;;;;;;12.23;10.17;;;;;;;13.71;66.77;101521.56;5041370;28;20391;-64
2022/06/02 06:11:16;;;;;;;9.13;8.33;;;;;;;13.18;67.87;101528.84;5040338;28;20718;-64
2022/06/02 06:13:54;;;;;;;11.57;9.30;;;;;;;13.68;66.78;101530.28;5039870;28;20421;-64
2022/06/02 06:16:49;;;;;;;9.60;8.70;;;;;;;13.70;66.91;101536.41;5040460;28;20480;-63
2022/06/02 06:19:35;;;;;;;9.30;8.40;;;;;;;13.60;66.53;101530.19;5038813;28;20792;-63
2022/06/02 06:22:16;;;;;;;9.73;8.83;;;;;;;13.73;66.49;101538.16;5041009;28;20437;-65
2022/06/02 06:24:44;;;;;;;9.33;8.07;;;;;;;13.85;65.72;101534.78;5040368;28;20420;-63
2022/06/02 06:27:34;;;;;;;8.53;7.73;;;;;;;15.06;62.94;101533.81;5039511;28;20410;-64
2022/06/02 06:30:15;;;;;;;7.80;7.10;;;;;;;15.16;61.43;101533.00;5041106;28;20428;-64
2022/06/02 06:32:59;;;;;;;7.93;7.30;;;;;;;15.42;60.19;101534.81;5051032;28;20397;-64
2022/06/02 06:35:41;;;;;;;10.20;6.97;;;;;;;15.15;61.20;101545.28;5040162;28;20413;-63
2022/06/02 06:38:19;;;;;;;7.60;6.90;;;;;;;15.51;60.33;101547.13;5039211;28;20418;-63
2022/06/02 06:41:06;;;;;;;8.40;7.63;;;;;;;14.84;61.48;101552.09;5040225;28;20419;-63
2022/06/02 06:43:44;;;;;;;8.80;7.90;;;;;;;14.55;63.40;101551.94;5040459;28;20393;-64
2022/06/02 06:46:28;;;;;;;7.50;6.80;;;;;;;14.61;63.40;101560.72;5040764;28;20390;-63
2022/06/02 06:49:00;;;;;;;7.93;7.17;;;;;;;14.50;63.18;101565.00;5040241;28;20676;-63
2022/06/02 06:52:05;;;;;;;7.50;6.90;;;;;;;14.35;64.07;101572.78;5039630;28;20417;-63
2022/06/02 06:54:46;;;;;;;7.60;6.93;;;;;;;14.07;65.00;101577.78;5020355;28;20480;-63
2022/06/02 06:57:50;;;;;;;7.80;7.10;;;;;;;14.43;64.10;101571.09;5020709;28;20406;-64
2022/06/02 07:00:27;;;;;;;7.97;7.20;;;;;;;13.88;65.44;101576.75;5020163;28;20466;-62
2022/06/02 07:03:13;;;;;;;7.73;7.03;;;;;;;14.26;65.12;101579.72;5037785;28;21005;-64
2022/06/02 07:06:10;;;;;;;7.63;6.93;;;;;;;14.42;63.95;101571.94;5038732;28;20436;-63
2022/06/02 07:08:40;;;;;;;7.67;6.53;;;;;;;14.08;64.59;101580.41;5039897;28;20445;-64
2022/06/02 07:14:38;;;;;;;8.73;6.60;;;;;;;14.11;64.66;101587.44;5053792;28;20427;-64
2022/06/02 07:17:10;;;;;;;7.20;6.50;;;;;;;13.86;65.28;101594.22;5055617;28;20674;-63
2022/06/02 07:19:43;;;;;;;7.13;6.53;;;;;;;14.92;63.35;101583.66;5038946;28;20472;-63
2022/06/02 07:22:26;;;;;;;8.47;6.43;;;;;;;13.77;65.63;101595.00;5038465;28;20421;-64
2022/06/02 07:25:02;;;;;;;8.17;7.47;;;;;;;14.12;65.50;101603.19;5036695;28;20421;-63
2022/06/02 07:27:40;;;;;;;7.63;6.90;;;;;;;13.43;66.70;101595.50;5055168;28;20425;-63
2022/06/02 07:30:37;;;;;;;7.70;6.90;;;;;;;14.27;65.18;101602.44;5036079;28;20436;-63
2022/06/02 07:33:28;;;;;;;7.47;6.70;;;;;;;14.49;64.53;101597.34;5033925;28;20425;-64
2022/06/02 07:36:35;;;;;;;8.50;7.40;;;;;;;13.90;66.15;101601.25;5038969;28;20849;-66
2022/06/02 07:39:14;;;;;;;9.67;7.03;;;;;;;14.12;65.41;101604.94;5018022;28;20447;-63
2022/06/02 07:42:17;;;;;;;7.40;6.77;;;;;;;13.97;65.87;101610.91;5033083;28;20446;-63
2022/06/02 07:44:57;;;;;;;8.47;6.53;;;;;;;14.19;65.30;101608.50;5038941;28;20376;-64
2022/06/02 07:47:50;;;;;;;7.07;6.40;;;;;;;14.61;64.88;101605.34;5031246;28;20430;-64
2022/06/02 07:50:24;;;;;;;8.37;6.70;;;;;;;14.03;66.62;101613.63;5039082;28;20399;-65
2022/06/02 07:53:12;;;;;;;11.73;6.80;;;;;;;14.77;65.83;101606.31;5054701;28;20436;-63
2022/06/02 07:55:40;;;;;;;7.30;6.60;;;;;;;14.80;66.26;101609.00;5038848;28;20846;-65
2022/06/02 07:58:41;;;;;;;7.20;6.50;;;;;;;14.61;67.75;101609.69;5038629;28;20696;-63
2022/06/02 08:01:31;;;;;;;7.17;6.47;;;;;;;14.66;67.24;101626.38;5037719;28;20421;-65
2022/06/02 08:03:59;;;;;;;7.80;7.10;;;;;;;14.35;68.23;101618.25;5037841;28;20453;-64
2022/06/02 08:06:25;;;;;;;13.77;8.30;;;;;;;14.51;68.11;101626.25;5038576;28;20419;-64
2022/06/02 08:09:13;;;;;;;8.23;7.10;;;;;;;14.54;68.33;101626.25;5038311;28;20718;-64
2022/06/02 08:11:58;;;;;;;7.10;6.50;;;;;;;14.43;68.13;101623.56;5037674;28;20201;-64
2022/06/02 08:14:47;;;;;;;6.50;6.00;;;;;;;14.47;67.88;101631.44;5054720;28;20412;-65
2022/06/02 08:17:23;;;;;;;7.30;6.40;;;;;;;14.98;66.96;101623.09;5038013;28;20476;-65
2022/06/02 08:19:59;;;;;;;7.57;6.80;;;;;;;14.42;66.84;101633.19;5036769;28;20573;-63
2022/06/02 08:22:51;;;;;;;6.87;5.87;;;;;;;14.76;66.56;101630.84;5037805;28;20395;-64
2022/06/02 08:25:22;;;;;;;9.73;6.30;;;;;;;15.16;65.73;101627.56;5033710;28;20407;-63
2022/06/02 08:28:13;;;;;;;7.17;5.73;;;;;;;15.46;64.53;101632.03;5038422;28;20492;-65
2022/06/02 08:31:15;;;;;;;8.30;5.83;;;;;;;15.24;64.52;101641.59;5037670;28;20417;-65
2022/06/02 08:33:51;;;;;;;7.10;5.60;;;;;;;15.60;64.42;101633.84;5038633;28;20423;-65
2022/06/02 08:36:24;;;;;;;8.37;5.10;;;;;;;15.47;63.97;101628.56;5037761;28;20420;-64
2022/06/02 08:38:59;;;;;;;5.53;5.00;;;;;;;15.64;63.56;101635.59;5038521;28;20441;-64
2022/06/02 08:41:57;;;;;;;5.90;4.90;;;;;;;15.40;63.93;101642.56;5038412;28;20383;-64
2022/06/02 08:44:43;;;;;;;7.63;5.00;;;;;;;15.77;63.05;101639.16;5037560;28;20403;-65
2022/06/02 08:47:12;;;;;;;6.13;5.20;;;;;;;15.72;62.61;101640.91;5036939;28;20691;-64
2022/06/02 08:50:15;;;;;;;9.17;5.07;;;;;;;16.25;61.60;101639.25;5027142;28;20664;-64
2022/06/02 08:53:07;;;;;;;4.83;4.40;;;;;;;15.59;62.09;101647.88;5038165;28;20411;-64
2022/06/02 08:55:48;;;;;;;6.07;4.63;;;;;;;16.14;61.13;101640.16;5035454;28;20722;-65
2022/06/02 08:58:42;;;;;;;5.97;4.30;;;;;;;16.08;60.86;101641.88;5053596;28;20852;-64
2022/06/02 09:01:37;;;;;;;6.10;4.50;;;;;;;16.00;60.96;101642.75;5037552;28;20408;-63
2022/06/02 09:04:50;;;;;;;6.20;4.33;;;;;;;16.04;60.09;101648.03;5029833;28;20433;-65
2022/06/02 09:07:43;;;;;;;4.87;4.47;;;;;;;16.18;60.31;101643.63;5035449;28;20454;-64
2022/06/02 09:10:17;;;;;;;5.50;5.00;;;;;;;15.97;61.16;101655.03;5035827;28;20423;-65
2022/06/02 09:12:50;;;;;;;5.33;3.90;;;;;;;16.17;60.50;101655.06;5026440;28;20667;-64
2022/06/02 09:15:39;;;;;;;6.40;3.93;;;;;;;16.58;58.59;101659.44;5036473;28;20475;-64
2022/06/02 09:18:07;;;;;;;7.67;4.00;;;;;;;16.62;58.49;101660.31;5035286;28;20534;-64
2022/06/02 09:21:09;;;;;;;5.70;3.80;;;;;;;16.79;57.20;101669.09;5036175;28;20388;-64
2022/06/02 09:24:04;;;;;;;5.33;3.80;;;;;;;16.70;56.96;101673.47;5018062;28;20701;-64
2022/06/02 09:26:59;;;;;;;4.90;3.83;;;;;;;15.97;58.86;101679.56;5017355;28;20418;-65
2022/06/02 09:29:48;;;;;;;7.20;4.23;;;;;;;16.31;58.63;101673.47;5022332;28;20440;-65
2022/06/02 09:33:33;;;;;;;4.60;4.13;;;;;;;16.53;58.59;101689.28;5036439;28;20421;-64
2022/06/02 09:35:58;;;;;;;6.30;4.07;;;;;;;15.59;60.56;101696.06;5037131;28;20431;-65
2022/06/02 09:38:40;;;;;;;7.67;4.07;;;;;;;15.53;61.11;101697.78;5025239;28;20453;-64
2022/06/02 09:41:18;;;;;;;5.20;4.60;;;;;;;15.37;61.75;101700.34;5017216;28;20431;-64
2022/06/02 09:43:56;;;;;;;4.77;4.27;;;;;;;15.76;60.82;101690.88;5032626;28;20403;-65
2022/06/02 09:46:40;;;;;;;5.73;4.37;;;;;;;15.87;60.86;101700.56;5034036;28;20832;-64
2022/06/02 09:49:08;;;;;;;5.80;4.30;;;;;;;16.05;60.75;101691.84;5018010;28;20398;-65
2022/06/02 09:51:52;;;;;;;6.00;4.70;;;;;;;16.00;60.98;101702.38;5021557;28;20689;-65
2022/06/02 09:54:50;;;;;;;8.53;4.70;;;;;;;16.23;59.12;101691.00;5027721;28;20810;-65
2022/06/02 10:00:30;;;;;;;6.23;4.50;;;;;;;16.35;58.98;101701.56;5017946;28;20478;-65
2022/06/02 10:03:22;;;;;;;5.70;4.40;;;;;;;16.61;59.06;101709.44;5033107;28;20466;-65
2022/06/02 10:06:03;;;;;;;7.50;4.40;;;;;;;15.92;59.80;101704.09;5036769;28;20456;-65
2022/06/02 10:08:38;;;;;;;5.23;4.00;;;;;;;15.75;60.85;101723.28;5037253;28;20423;-65
2022/06/02 10:11:18;;;;;;;4.00;3.70;;;;;;;16.12;59.84;101712.91;5034262;28;20482;-65
2022/06/02 10:14:09;;;;;;;4.80;4.40;;;;;;;16.08;59.43;101716.41;5033448;28;20424;-65
2022/06/02 10:16:38;;;;;;;7.03;5.43;;;;;;;15.87;59.81;101721.59;5036638;28;20464;-64
2022/06/02 10:19:24;;;;;;;7.40;5.13;;;;;;;15.88;60.35;101724.22;5024871;28;20508;-65
2022/06/02 10:22:09;;;;;;;7.50;4.67;;;;;;;16.29;60.02;101726.13;5033930;28;20403;-65
2022/06/02 10:24:53;;;;;;;7.70;4.97;;;;;;;16.32;59.19;101719.97;5029364;28;20720;-65
2022/06/02 10:27:40;;;;;;;5.40;4.43;;;;;;;16.38;59.32;101717.34;5017730;28;20975;-64
2022/06/02 10:30:42;;;;;;;8.00;4.40;;;;;;;16.79;58.40;101715.59;5029960;28;20380;-65
2022/06/02 10:33:29;;;;;;;5.40;3.90;;;;;;;17.00;57.55;101717.38;5017415;28;20790;-64
2022/06/02 10:36:32;;;;;;;6.50;4.40;;;;;;;16.87;56.93;101718.22;5017500;28;20774;-64
2022/06/02 10:39:16;;;;;;;6.60;4.57;;;;;;;17.79;55.01;101714.50;5017688;28;20465;-64
2022/06/02 10:42:00;;;;;;;5.90;4.10;;;;;;;17.84;54.54;101720.63;5031633;28;20380;-65
2022/06/02 10:44:47;;;;;;;4.67;4.20;;;;;;;16.80;56.47;101720.84;5040293;28;20473;-64
2022/06/02 10:47:41;;;;;;;4.47;4.03;;;;;;;17.19;56.29;101719.97;5041139;28;20432;-65
2022/06/02 10:50:35;;;;;;;8.30;4.57;;;;;;;17.11;57.28;101728.75;5040022;28;20395;-65
2022/06/02 10:53:25;;;;;;;9.93;5.00;;;;;;;16.31;58.05;101734.88;5022523;28;20536;-65
2022/06/02 10:56:27;;;;;;;5.10;4.60;;;;;;;15.86;59.49;101727.72;5038580;28;20461;-64
2022/06/02 10:59:01;;;;;;;5.07;4.50;;;;;;;16.07;59.38;101740.94;5040253;28;20922;-64
2022/06/02 11:01:50;;;;;;;5.30;4.63;;;;;;;16.21;59.31;101742.75;5040425;28;20466;-65
2022/06/02 11:04:43;;;;;;;6.70;4.20;;;;;;;16.30;59.41;101737.50;5039733;28;20661;-64
2022/06/02 11:07:24;;;;;;;7.70;4.00;;;;;;;16.06;59.37;101739.22;5035560;28;20683;-64
2022/06/02 11:09:55;;;;;;;5.40;4.90;;;;;;;16.29;58.77;101738.38;5044512;28;20453;-65
2022/06/02 11:12:47;;;;;;;7.83;4.57;;;;;;;16.48;57.98;101734.91;5029234;28;20436;-66
2022/06/02 11:15:55;;;;;;;4.90;4.50;;;;;;;16.56;57.54;101744.56;5029209;28;20421;-65
2022/06/02 11:18:58;;;;;;;7.50;4.87;;;;;;;16.56;57.01;101741.91;5031024;28;20437;-65
2022/06/02 11:22:09;;;;;;;4.90;4.50;;;;;;;16.58;56.71;101742.81;5039409;28;20453;-64
2022/06/02 11:24:46;;;;;;;4.80;4.30;;;;;;;17.03;55.81;101741.06;5037754;28;20714;-66
2022/06/02 11:27:48;;;;;;;4.90;4.43;;;;;;;17.45;55.48;101743.63;5055423;28;20680;-65
2022/06/02 11:30:25;;;;;;;4.67;4.27;;;;;;;17.14;56.52;101752.50;5054561;28;20444;-65
2022/06/02 11:33:07;;;;;;;5.33;4.83;;;;;;;16.61;57.48;101748.94;5023573;28;20433;-65
2022/06/02 11:35:57;;;;;;;6.13;4.30;;;;;;;16.98;56.63;101754.25;5039754;28;20729;-65
2022/06/02 11:38:53;;;;;;;5.83;4.27;;;;;;;16.19;58.13;101749.78;5059608;28;20440;-65
2022/06/02 11:41:35;;;;;;;6.20;4.37;;;;;;;16.29;58.04;101754.16;5020470;28;20457;-65
2022/06/02 11:44:11;;;;;;;4.77;4.27;;;;;;;16.16;58.24;101751.50;5039950;28;20503;-64
2022/06/02 11:46:45;;;;;;;5.53;4.20;;;;;;;16.09;58.99;101756.75;5049183;28;20391;-65
2022/06/02 11:49:36;;;;;;;8.63;4.57;;;;;;;16.12;58.33;101762.88;5025300;28;20489;-65
2022/06/02 11:52:34;;;;;;;5.80;4.70;;;;;;;15.72;59.84;101767.09;5022833;28;20852;-64
2022/06/02 11:55:21;;;;;;;5.23;4.73;;;;;;;15.49;61.27;101762.56;5024578;28;20433;-65
2022/06/02 11:58:07;;;;;;;7.17;4.63;;;;;;;16.55;58.95;101762.13;5037577;28;20425;-67
2022/06/02 12:01:06;;;;;;;6.30;4.20;;;;;;;18.15;54.77;101754.81;5033472;28;20451;-64
2022/06/02 12:03:43;;;;;;;4.37;3.97;;;;;;;18.22;53.47;101753.88;5041471;28;20424;-65
2022/06/02 12:06:30;;;;;;;4.67;4.00;;;;;;;19.69;50.32;101736.72;5058266;28;20382;-65
2022/06/02 12:09:41;;;;;;;5.20;4.23;;;;;;;18.47;51.76;101749.31;5057589;28;20493;-65
2022/06/02 12:12:17;;;;;;;6.07;4.30;;;;;;;17.95;53.19;101747.00;5058703;28;20404;-65
2022/06/02 12:15:18;;;;;;;6.10;4.40;;;;;;;18.55;52.44;101748.38;5058306;28;20868;-65
2022/06/02 12:18:02;;;;;;;7.83;4.03;;;;;;;18.40;53.04;101752.00;5058508;28;20721;-63
2022/06/02 12:20:46;;;;;;;4.30;3.90;;;;;;;17.72;54.69;101747.06;5058038;28;20455;-64
2022/06/02 12:23:40;;;;;;;6.90;4.50;;;;;;;18.76;52.64;101742.94;5058808;28;20420;-65
2022/06/02 12:26:23;;;;;;;4.77;4.00;;;;;;;18.52;52.74;101744.88;5058190;28;20424;-64
2022/06/02 12:29:03;;;;;;;4.50;3.90;;;;;;;19.37;50.65;101745.91;5058120;28;20416;-65
2022/06/02 12:31:51;;;;;;;5.57;4.13;;;;;;;18.99;51.14;101749.81;5058248;28;20759;-64
2022/06/02 12:34:58;;;;;;;4.37;3.97;;;;;;;18.93;51.67;101749.84;5057865;28;20404;-64
2022/06/02 12:37:39;;;;;;;4.70;4.03;;;;;;;18.97;49.99;101756.88;5051087;28;20408;-64
2022/06/02 12:40:29;;;;;;;4.80;3.97;;;;;;;18.52;52.54;101747.53;5057812;28;20888;-65
2022/06/02 12:43:04;;;;;;;5.90;4.70;;;;;;;18.63;51.49;101751.84;5058355;28;20396;-63
2022/06/02 12:45:48;;;;;;;5.23;4.23;;;;;;;18.33;52.70;101757.34;5058697;28;20439;-64
2022/06/02 12:48:28;;;;;;;8.13;4.70;;;;;;;19.55;50.08;101746.59;5058610;28;20422;-63